sensor_id;sensor_type;location;lat;lon;timestamp;temperature;humidity
4749;DHT22;2388;53.582;9.962;2024-03-23T00:53:07;7.80;99.90
4749;DHT22;2388;53.582;9.962;2024-03-23T00:55:33;7.80;99.90
4749;DHT22;2388;53.582;9.962;2024-03-23T00:57:58;7.80;99.90
4749;DHT22;2388;53.582;9.962;2024-03-23T01:00:24;7.70;99.90
4749;DHT22;2388;53.582;9.962;2024-03-23T01:02:49;7.80;99.90
4749;DHT22;2388;53.582;9.962;2024-03-23T01:05:15;7.80;99.90
4749;DHT22;2388;53.582;9.962;2024-03-23T01:07:40;7.80;99.90
4749;DHT22;2388;53.582;9.962;2024-03-23T01:10:06;7.80;99.90
4749;DHT22;2388;53.582;9.962;2024-03-23T01:12:31;7.80;99.90
4749;DHT22;2388;53.582;9.962;2024-03-23T01:14:57;7.80;99.90
4749;DHT22;2388;53.582;9.962;2024-03-23T01:17:22;7.70;99.90
4749;DHT22;2388;53.582;9.962;2024-03-23T01:19:48;7.70;99.90
4749;DHT22;2388;53.582;9.962;2024-03-23T01:22:13;7.70;99.90
4749;DHT22;2388;53.582;9.962;2024-03-23T01:24:39;7.70;99.90
4749;DHT22;2388;53.582;9.962;2024-03-23T01:27:04;7.70;99.90
4749;DHT22;2388;53.582;9.962;2024-03-23T01:29:30;7.60;99.90
4749;DHT22;2388;53.582;9.962;2024-03-23T01:31:55;7.60;99.90
4749;DHT22;2388;53.582;9.962;2024-03-23T01:34:21;7.60;99.90
4749;DHT22;2388;53.582;9.962;2024-03-23T01:36:47;7.60;99.90
4749;DHT22;2388;53.582;9.962;2024-03-23T01:39:13;7.60;99.90
4749;DHT22;2388;53.582;9.962;2024-03-23T01:41:40;7.50;99.90
4749;DHT22;2388;53.582;9.962;2024-03-23T01:44:08;7.60;99.90
4749;DHT22;2388;53.582;9.962;2024-03-23T01:46:34;7.50;99.90
4749;DHT22;2388;53.582;9.962;2024-03-23T01:49:00;7.50;99.90
4749;DHT22;2388;53.582;9.962;2024-03-23T01:51:26;7.50;99.90
4749;DHT22;2388;53.582;9.962;2024-03-23T01:53:53;7.50;99.90
4749;DHT22;2388;53.582;9.962;2024-03-23T01:56:19;7.50;99.90
4749;DHT22;2388;53.582;9.962;2024-03-23T01:58:45;7.50;99.90
4749;DHT22;2388;53.582;9.962;2024-03-23T02:01:10;7.50;99.90
4749;DHT22;2388;53.582;9.962;2024-03-23T02:03:36;7.50;99.90
4749;DHT22;2388;53.582;9.962;2024-03-23T02:06:02;7.40;99.90
4749;DHT22;2388;53.582;9.962;2024-03-23T02:08:28;7.40;99.90
4749;DHT22;2388;53.582;9.962;2024-03-23T02:10:54;7.40;99.90
4749;DHT22;2388;53.582;9.962;2024-03-23T02:13:19;7.40;99.90
4749;DHT22;2388;53.582;9.962;2024-03-23T02:15:45;7.40;99.90
4749;DHT22;2388;53.582;9.962;2024-03-23T02:18:11;7.30;99.90
4749;DHT22;2388;53.582;9.962;2024-03-23T02:20:37;7.30;99.90
4749;DHT22;2388;53.582;9.962;2024-03-23T02:23:04;7.30;99.90
4749;DHT22;2388;53.582;9.962;2024-03-23T02:25:32;7.30;99.90
4749;DHT22;2388;53.582;9.962;2024-03-23T02:27:57;7.20;99.90
4749;DHT22;2388;53.582;9.962;2024-03-23T02:30:24;7.30;99.90
4749;DHT22;2388;53.582;9.962;2024-03-23T02:32:50;7.30;99.90
4749;DHT22;2388;53.582;9.962;2024-03-23T02:35:15;7.20;99.90
4749;DHT22;2388;53.582;9.962;2024-03-23T02:37:41;7.20;99.90
4749;DHT22;2388;53.582;9.962;2024-03-23T02:40:07;7.20;99.90
4749;DHT22;2388;53.582;9.962;2024-03-23T02:42:32;7.20;99.90
4749;DHT22;2388;53.582;9.962;2024-03-23T02:44:59;7.20;99.90
4749;DHT22;2388;53.582;9.962;2024-03-23T02:47:24;7.20;99.90
4749;DHT22;2388;53.582;9.962;2024-03-23T02:49:49;7.20;99.90
4749;DHT22;2388;53.582;9.962;2024-03-23T02:52:15;7.10;99.90
4749;DHT22;2388;53.582;9.962;2024-03-23T02:54:40;7.10;99.90
4749;DHT22;2388;53.582;9.962;2024-03-23T02:57:10;7.10;99.90
4749;DHT22;2388;53.582;9.962;2024-03-23T02:59:35;7.10;99.90
4749;DHT22;2388;53.582;9.962;2024-03-23T03:02:01;7.00;99.90
4749;DHT22;2388;53.582;9.962;2024-03-23T03:04:26;7.00;99.90
4749;DHT22;2388;53.582;9.962;2024-03-23T03:06:52;7.00;99.90
4749;DHT22;2388;53.582;9.962;2024-03-23T03:09:17;6.90;99.90
4749;DHT22;2388;53.582;9.962;2024-03-23T03:11:43;6.90;99.90
4749;DHT22;2388;53.582;9.962;2024-03-23T03:14:08;6.90;99.90
4749;DHT22;2388;53.582;9.962;2024-03-23T03:16:34;6.90;99.90
4749;DHT22;2388;53.582;9.962;2024-03-23T03:18:59;7.00;99.90
4749;DHT22;2388;53.582;9.962;2024-03-23T03:21:25;6.90;99.90
4749;DHT22;2388;53.582;9.962;2024-03-23T03:23:51;7.00;99.90
4749;DHT22;2388;53.582;9.962;2024-03-23T03:26:17;7.00;99.90
4749;DHT22;2388;53.582;9.962;2024-03-23T03:28:43;7.00;99.90
4749;DHT22;2388;53.582;9.962;2024-03-23T03:31:09;6.90;99.90
4749;DHT22;2388;53.582;9.962;2024-03-23T03:33:35;6.90;99.90
4749;DHT22;2388;53.582;9.962;2024-03-23T03:36:00;6.90;99.90
4749;DHT22;2388;53.582;9.962;2024-03-23T03:38:26;7.00;99.90
4749;DHT22;2388;53.582;9.962;2024-03-23T03:40:51;7.00;99.90
4749;DHT22;2388;53.582;9.962;2024-03-23T03:43:18;7.00;99.90
4749;DHT22;2388;53.582;9.962;2024-03-23T03:45:51;7.00;99.90
4749;DHT22;2388;53.582;9.962;2024-03-23T03:48:17;6.90;99.90
4749;DHT22;2388;53.582;9.962;2024-03-23T03:50:42;6.90;99.90
4749;DHT22;2388;53.582;9.962;2024-03-23T03:53:08;6.90;99.90
4749;DHT22;2388;53.582;9.962;2024-03-23T03:55:33;6.90;99.90
4749;DHT22;2388;53.582;9.962;2024-03-23T03:57:59;6.90;99.90
4749;DHT22;2388;53.582;9.962;2024-03-23T04:00:24;6.80;99.90
4749;DHT22;2388;53.582;9.962;2024-03-23T04:02:50;6.90;99.90
4749;DHT22;2388;53.582;9.962;2024-03-23T04:05:16;6.90;99.90
4749;DHT22;2388;53.582;9.962;2024-03-23T04:07:42;6.80;99.90
4749;DHT22;2388;53.582;9.962;2024-03-23T04:10:07;6.80;99.90
4749;DHT22;2388;53.582;9.962;2024-03-23T04:12:33;6.90;99.90
4749;DHT22;2388;53.582;9.962;2024-03-23T04:14:59;6.90;99.90
4749;DHT22;2388;53.582;9.962;2024-03-23T04:17:26;6.80;99.90
4749;DHT22;2388;53.582;9.962;2024-03-23T04:19:55;6.80;99.90
4749;DHT22;2388;53.582;9.962;2024-03-23T04:22:21;6.80;99.90
4749;DHT22;2388;53.582;9.962;2024-03-23T04:24:47;6.80;99.90
4749;DHT22;2388;53.582;9.962;2024-03-23T04:27:12;6.80;99.90
4749;DHT22;2388;53.582;9.962;2024-03-23T04:29:37;6.70;99.90
4749;DHT22;2388;53.582;9.962;2024-03-23T04:32:03;6.70;99.90
4749;DHT22;2388;53.582;9.962;2024-03-23T04:34:30;6.70;99.90
4749;DHT22;2388;53.582;9.962;2024-03-23T04:36:55;6.80;99.90
4749;DHT22;2388;53.582;9.962;2024-03-23T04:39:21;6.80;99.90
4749;DHT22;2388;53.582;9.962;2024-03-23T04:41:46;6.70;99.90
4749;DHT22;2388;53.582;9.962;2024-03-23T04:44:12;6.70;99.90
4749;DHT22;2388;53.582;9.962;2024-03-23T04:46:37;6.70;99.90
4749;DHT22;2388;53.582;9.962;2024-03-23T04:49:03;6.70;99.90
4749;DHT22;2388;53.582;9.962;2024-03-23T04:51:36;6.70;99.90
4749;DHT22;2388;53.582;9.962;2024-03-23T04:54:03;6.70;99.90
4749;DHT22;2388;53.582;9.962;2024-03-23T04:56:29;6.60;99.90
4749;DHT22;2388;53.582;9.962;2024-03-23T04:58:55;6.60;99.90
4749;DHT22;2388;53.582;9.962;2024-03-23T05:01:20;6.60;99.90
4749;DHT22;2388;53.582;9.962;2024-03-23T05:03:46;6.60;99.90
4749;DHT22;2388;53.582;9.962;2024-03-23T05:06:11;6.60;99.90
4749;DHT22;2388;53.582;9.962;2024-03-23T05:08:37;6.60;99.90
4749;DHT22;2388;53.582;9.962;2024-03-23T05:11:02;6.60;99.90
4749;DHT22;2388;53.582;9.962;2024-03-23T05:13:28;6.60;99.90
4749;DHT22;2388;53.582;9.962;2024-03-23T05:15:54;6.60;99.90
4749;DHT22;2388;53.582;9.962;2024-03-23T05:18:20;6.60;99.90
4749;DHT22;2388;53.582;9.962;2024-03-23T05:20:46;6.60;99.90
4749;DHT22;2388;53.582;9.962;2024-03-23T05:23:11;6.60;99.90
4749;DHT22;2388;53.582;9.962;2024-03-23T05:25:36;6.60;99.90
4749;DHT22;2388;53.582;9.962;2024-03-23T05:28:02;6.50;99.90
4749;DHT22;2388;53.582;9.962;2024-03-23T05:30:27;6.50;99.90
4749;DHT22;2388;53.582;9.962;2024-03-23T05:32:54;6.50;99.90
4749;DHT22;2388;53.582;9.962;2024-03-23T05:35:19;6.50;99.90
4749;DHT22;2388;53.582;9.962;2024-03-23T05:37:45;6.50;99.90
4749;DHT22;2388;53.582;9.962;2024-03-23T05:40:11;6.50;99.90
4749;DHT22;2388;53.582;9.962;2024-03-23T05:42:38;6.50;99.90
4749;DHT22;2388;53.582;9.962;2024-03-23T05:45:04;6.50;99.90
4749;DHT22;2388;53.582;9.962;2024-03-23T05:47:32;6.50;99.90
4749;DHT22;2388;53.582;9.962;2024-03-23T05:49:57;6.50;99.90
4749;DHT22;2388;53.582;9.962;2024-03-23T05:52:23;6.50;99.90
4749;DHT22;2388;53.582;9.962;2024-03-23T05:54:51;6.50;99.90
4749;DHT22;2388;53.582;9.962;2024-03-23T05:57:16;6.50;99.90
4749;DHT22;2388;53.582;9.962;2024-03-23T05:59:42;6.50;99.90
4749;DHT22;2388;53.582;9.962;2024-03-23T06:02:07;6.60;99.90
4749;DHT22;2388;53.582;9.962;2024-03-23T06:04:35;6.50;99.90
4749;DHT22;2388;53.582;9.962;2024-03-23T06:07:01;6.50;99.90
4749;DHT22;2388;53.582;9.962;2024-03-23T06:09:27;6.50;99.90
4749;DHT22;2388;53.582;9.962;2024-03-23T06:11:52;6.50;99.90
4749;DHT22;2388;53.582;9.962;2024-03-23T06:14:17;6.50;99.90
4749;DHT22;2388;53.582;9.962;2024-03-23T06:16:43;6.50;99.90
4749;DHT22;2388;53.582;9.962;2024-03-23T06:19:08;6.50;99.90
4749;DHT22;2388;53.582;9.962;2024-03-23T06:21:34;6.50;99.90
4749;DHT22;2388;53.582;9.962;2024-03-23T06:24:00;6.50;99.90
4749;DHT22;2388;53.582;9.962;2024-03-23T06:26:25;6.50;99.90
4749;DHT22;2388;53.582;9.962;2024-03-23T06:28:51;6.50;99.90
4749;DHT22;2388;53.582;9.962;2024-03-23T06:31:16;6.50;99.90
4749;DHT22;2388;53.582;9.962;2024-03-23T06:33:42;6.50;99.90
4749;DHT22;2388;53.582;9.962;2024-03-23T06:36:10;6.60;99.90
4749;DHT22;2388;53.582;9.962;2024-03-23T06:38:36;6.60;99.90
4749;DHT22;2388;53.582;9.962;2024-03-23T06:41:03;6.60;99.90
4749;DHT22;2388;53.582;9.962;2024-03-23T06:43:29;6.60;99.90
4749;DHT22;2388;53.582;9.962;2024-03-23T06:45:55;6.60;99.90
4749;DHT22;2388;53.582;9.962;2024-03-23T06:48:21;6.60;99.90
4749;DHT22;2388;53.582;9.962;2024-03-23T06:50:47;6.60;99.90
4749;DHT22;2388;53.582;9.962;2024-03-23T06:53:13;6.60;99.90
4749;DHT22;2388;53.582;9.962;2024-03-23T06:55:39;6.60;99.90
4749;DHT22;2388;53.582;9.962;2024-03-23T06:58:04;6.60;99.90
4749;DHT22;2388;53.582;9.962;2024-03-23T07:00:30;6.50;99.90
4749;DHT22;2388;53.582;9.962;2024-03-23T07:02:57;6.60;99.90
4749;DHT22;2388;53.582;9.962;2024-03-23T07:05:23;6.60;99.90
4749;DHT22;2388;53.582;9.962;2024-03-23T07:07:48;6.60;99.90
4749;DHT22;2388;53.582;9.962;2024-03-23T07:10:14;6.60;99.90
4749;DHT22;2388;53.582;9.962;2024-03-23T07:12:39;6.60;99.90
4749;DHT22;2388;53.582;9.962;2024-03-23T07:15:05;6.50;99.90
4749;DHT22;2388;53.582;9.962;2024-03-23T07:17:30;6.50;99.90
4749;DHT22;2388;53.582;9.962;2024-03-23T07:19:58;6.60;99.90
4749;DHT22;2388;53.582;9.962;2024-03-23T07:22:23;6.60;99.90
4749;DHT22;2388;53.582;9.962;2024-03-23T07:24:49;6.60;99.90
4749;DHT22;2388;53.582;9.962;2024-03-23T07:27:15;6.60;99.90
4749;DHT22;2388;53.582;9.962;2024-03-23T07:29:40;6.70;99.90
4749;DHT22;2388;53.582;9.962;2024-03-23T07:32:06;6.70;99.90
4749;DHT22;2388;53.582;9.962;2024-03-23T07:34:32;6.80;99.90
4749;DHT22;2388;53.582;9.962;2024-03-23T07:36:58;6.80;99.90
4749;DHT22;2388;53.582;9.962;2024-03-23T07:39:23;6.90;99.90
4749;DHT22;2388;53.582;9.962;2024-03-23T07:41:50;6.90;99.90
4749;DHT22;2388;53.582;9.962;2024-03-23T07:44:15;6.90;99.90
4749;DHT22;2388;53.582;9.962;2024-03-23T07:46:40;6.90;99.90
4749;DHT22;2388;53.582;9.962;2024-03-23T07:49:06;6.90;99.90
4749;DHT22;2388;53.582;9.962;2024-03-23T07:51:32;6.90;99.90
4749;DHT22;2388;53.582;9.962;2024-03-23T07:53:58;7.00;99.90
4749;DHT22;2388;53.582;9.962;2024-03-23T07:56:23;7.00;99.90
4749;DHT22;2388;53.582;9.962;2024-03-23T07:58:49;7.10;99.90
4749;DHT22;2388;53.582;9.962;2024-03-23T08:01:16;7.10;99.90
4749;DHT22;2388;53.582;9.962;2024-03-23T08:03:43;7.10;99.90
4749;DHT22;2388;53.582;9.962;2024-03-23T08:06:16;7.20;99.90
4749;DHT22;2388;53.582;9.962;2024-03-23T08:08:43;7.30;99.90
4749;DHT22;2388;53.582;9.962;2024-03-23T08:11:09;7.40;99.90
4749;DHT22;2388;53.582;9.962;2024-03-23T08:13:35;7.40;99.90
4749;DHT22;2388;53.582;9.962;2024-03-23T08:16:02;7.50;99.90
4749;DHT22;2388;53.582;9.962;2024-03-23T08:18:28;7.60;99.90
4749;DHT22;2388;53.582;9.962;2024-03-23T08:21:02;7.70;99.90
4749;DHT22;2388;53.582;9.962;2024-03-23T08:23:28;7.80;99.90
4749;DHT22;2388;53.582;9.962;2024-03-23T08:25:58;7.90;99.90
4749;DHT22;2388;53.582;9.962;2024-03-23T08:28:24;7.90;99.90
4749;DHT22;2388;53.582;9.962;2024-03-23T08:30:50;8.00;99.90
4749;DHT22;2388;53.582;9.962;2024-03-23T08:33:16;8.10;99.90
4749;DHT22;2388;53.582;9.962;2024-03-23T08:35:42;8.10;99.90
4749;DHT22;2388;53.582;9.962;2024-03-23T08:38:07;8.10;99.90
4749;DHT22;2388;53.582;9.962;2024-03-23T08:40:33;8.20;99.90
4749;DHT22;2388;53.582;9.962;2024-03-23T08:42:59;8.20;99.90
4749;DHT22;2388;53.582;9.962;2024-03-23T08:45:24;8.30;99.90
4749;DHT22;2388;53.582;9.962;2024-03-23T08:47:50;8.30;99.90
4749;DHT22;2388;53.582;9.962;2024-03-23T08:50:16;8.40;99.90
4749;DHT22;2388;53.582;9.962;2024-03-23T08:52:41;8.50;99.90
4749;DHT22;2388;53.582;9.962;2024-03-23T08:55:07;8.50;99.90
4749;DHT22;2388;53.582;9.962;2024-03-23T08:57:32;8.50;99.90
4749;DHT22;2388;53.582;9.962;2024-03-23T08:59:58;8.60;99.90
4749;DHT22;2388;53.582;9.962;2024-03-23T09:02:23;8.70;99.90
4749;DHT22;2388;53.582;9.962;2024-03-23T09:04:49;8.80;99.90
4749;DHT22;2388;53.582;9.962;2024-03-23T09:07:14;8.80;99.90
4749;DHT22;2388;53.582;9.962;2024-03-23T09:09:40;8.80;99.90
4749;DHT22;2388;53.582;9.962;2024-03-23T09:12:06;8.80;99.90
4749;DHT22;2388;53.582;9.962;2024-03-23T09:14:33;8.90;99.90
4749;DHT22;2388;53.582;9.962;2024-03-23T09:16:58;9.10;99.90
4749;DHT22;2388;53.582;9.962;2024-03-23T09:19:28;9.10;99.90
4749;DHT22;2388;53.582;9.962;2024-03-23T09:21:53;9.10;99.90
4749;DHT22;2388;53.582;9.962;2024-03-23T09:24:18;9.10;99.90
4749;DHT22;2388;53.582;9.962;2024-03-23T09:26:44;9.00;99.90
4749;DHT22;2388;53.582;9.962;2024-03-23T09:29:09;8.90;99.90
4749;DHT22;2388;53.582;9.962;2024-03-23T09:31:35;8.90;99.90
4749;DHT22;2388;53.582;9.962;2024-03-23T09:34:00;8.90;99.90
4749;DHT22;2388;53.582;9.962;2024-03-23T09:36:26;8.80;99.90
4749;DHT22;2388;53.582;9.962;2024-03-23T09:38:51;8.90;99.90
4749;DHT22;2388;53.582;9.962;2024-03-23T09:41:17;8.90;99.90
4749;DHT22;2388;53.582;9.962;2024-03-23T09:43:42;8.90;99.90
4749;DHT22;2388;53.582;9.962;2024-03-23T09:46:08;8.90;99.90
4749;DHT22;2388;53.582;9.962;2024-03-23T09:48:34;9.00;99.90
4749;DHT22;2388;53.582;9.962;2024-03-23T09:51:02;9.00;99.90
4749;DHT22;2388;53.582;9.962;2024-03-23T09:53:28;9.10;99.90
4749;DHT22;2388;53.582;9.962;2024-03-23T09:55:53;9.20;99.90
4749;DHT22;2388;53.582;9.962;2024-03-23T09:58:19;9.20;99.90
4749;DHT22;2388;53.582;9.962;2024-03-23T10:00:45;9.30;99.90
4749;DHT22;2388;53.582;9.962;2024-03-23T10:03:10;9.30;99.90
4749;DHT22;2388;53.582;9.962;2024-03-23T10:05:37;9.10;99.90
4749;DHT22;2388;53.582;9.962;2024-03-23T10:10:43;9.10;99.90
4749;DHT22;2388;53.582;9.962;2024-03-23T10:13:09;9.10;99.90
4749;DHT22;2388;53.582;9.962;2024-03-23T10:15:36;9.10;99.90
4749;DHT22;2388;53.582;9.962;2024-03-23T10:18:18;9.10;99.90
4749;DHT22;2388;53.582;9.962;2024-03-23T10:20:50;8.90;99.90
4749;DHT22;2388;53.582;9.962;2024-03-23T10:23:16;9.00;99.90
4749;DHT22;2388;53.582;9.962;2024-03-23T10:25:42;9.00;99.90
4749;DHT22;2388;53.582;9.962;2024-03-23T10:28:08;9.10;99.90
4749;DHT22;2388;53.582;9.962;2024-03-23T10:30:34;9.10;99.90
4749;DHT22;2388;53.582;9.962;2024-03-23T10:33:10;9.10;99.90
4749;DHT22;2388;53.582;9.962;2024-03-23T10:35:37;9.10;99.90
4749;DHT22;2388;53.582;9.962;2024-03-23T10:38:06;9.10;99.90
4749;DHT22;2388;53.582;9.962;2024-03-23T10:40:34;9.10;99.90
4749;DHT22;2388;53.582;9.962;2024-03-23T10:43:00;9.10;99.90
4749;DHT22;2388;53.582;9.962;2024-03-23T10:45:27;9.00;99.90
4749;DHT22;2388;53.582;9.962;2024-03-23T10:47:53;9.00;99.90
4749;DHT22;2388;53.582;9.962;2024-03-23T10:50:18;9.00;99.90
4749;DHT22;2388;53.582;9.962;2024-03-23T10:52:47;9.10;99.90
4749;DHT22;2388;53.582;9.962;2024-03-23T10:55:19;9.30;99.90
4749;DHT22;2388;53.582;9.962;2024-03-23T10:57:50;9.40;99.90
4749;DHT22;2388;53.582;9.962;2024-03-23T11:00:17;9.30;99.90
4749;DHT22;2388;53.582;9.962;2024-03-23T11:02:43;9.20;99.90
4749;DHT22;2388;53.582;9.962;2024-03-23T11:05:46;9.30;99.90
4749;DHT22;2388;53.582;9.962;2024-03-23T11:08:30;9.30;99.90
4749;DHT22;2388;53.582;9.962;2024-03-23T11:11:12;9.80;99.90
4749;DHT22;2388;53.582;9.962;2024-03-23T11:13:38;10.00;99.90
4749;DHT22;2388;53.582;9.962;2024-03-23T11:18:41;10.50;99.90
4749;DHT22;2388;53.582;9.962;2024-03-23T11:21:08;10.70;99.90
4749;DHT22;2388;53.582;9.962;2024-03-23T11:23:33;10.80;99.90
4749;DHT22;2388;53.582;9.962;2024-03-23T11:25:59;10.70;99.90
4749;DHT22;2388;53.582;9.962;2024-03-23T11:28:24;10.60;99.90
4749;DHT22;2388;53.582;9.962;2024-03-23T11:30:53;10.60;99.90
4749;DHT22;2388;53.582;9.962;2024-03-23T11:33:18;10.70;99.90
4749;DHT22;2388;53.582;9.962;2024-03-23T11:35:44;11.00;99.90
4749;DHT22;2388;53.582;9.962;2024-03-23T11:38:14;11.00;99.90
4749;DHT22;2388;53.582;9.962;2024-03-23T11:40:45;11.00;99.90
4749;DHT22;2388;53.582;9.962;2024-03-23T11:43:13;11.00;99.90
4749;DHT22;2388;53.582;9.962;2024-03-23T11:45:44;11.10;99.90
4749;DHT22;2388;53.582;9.962;2024-03-23T11:48:12;11.10;99.90
4749;DHT22;2388;53.582;9.962;2024-03-23T11:50:42;11.10;99.90
4749;DHT22;2388;53.582;9.962;2024-03-23T11:55:50;11.00;99.90
4749;DHT22;2388;53.582;9.962;2024-03-23T11:58:23;11.00;99.90
4749;DHT22;2388;53.582;9.962;2024-03-23T12:03:17;10.80;99.90
4749;DHT22;2388;53.582;9.962;2024-03-23T12:05:48;10.30;99.90
4749;DHT22;2388;53.582;9.962;2024-03-23T12:08:24;10.10;99.90
4749;DHT22;2388;53.582;9.962;2024-03-23T12:10:51;9.60;99.90
4749;DHT22;2388;53.582;9.962;2024-03-23T12:13:18;9.10;99.90
4749;DHT22;2388;53.582;9.962;2024-03-23T12:15:45;9.10;99.90
4749;DHT22;2388;53.582;9.962;2024-03-23T12:18:11;9.10;99.90
4749;DHT22;2388;53.582;9.962;2024-03-23T12:20:38;9.00;99.90
4749;DHT22;2388;53.582;9.962;2024-03-23T12:23:07;8.90;99.90
4749;DHT22;2388;53.582;9.962;2024-03-23T12:25:34;9.00;99.90
4749;DHT22;2388;53.582;9.962;2024-03-23T12:28:00;9.20;99.90
4749;DHT22;2388;53.582;9.962;2024-03-23T12:30:25;9.30;99.90
4749;DHT22;2388;53.582;9.962;2024-03-23T12:32:51;9.60;99.90
4749;DHT22;2388;53.582;9.962;2024-03-23T12:35:16;9.70;99.90
4749;DHT22;2388;53.582;9.962;2024-03-23T12:37:43;9.60;99.90
4749;DHT22;2388;53.582;9.962;2024-03-23T12:40:08;9.30;99.90
4749;DHT22;2388;53.582;9.962;2024-03-23T12:42:34;9.00;99.90
4749;DHT22;2388;53.582;9.962;2024-03-23T12:44:59;8.70;99.90
4749;DHT22;2388;53.582;9.962;2024-03-23T12:47:25;8.30;99.90
4749;DHT22;2388;53.582;9.962;2024-03-23T12:49:51;8.00;99.90
4749;DHT22;2388;53.582;9.962;2024-03-23T12:52:17;7.80;99.90
4749;DHT22;2388;53.582;9.962;2024-03-23T12:54:43;7.70;99.90
4749;DHT22;2388;53.582;9.962;2024-03-23T12:57:08;7.70;99.90
4749;DHT22;2388;53.582;9.962;2024-03-23T12:59:34;7.60;99.90
4749;DHT22;2388;53.582;9.962;2024-03-23T13:02:01;7.50;99.90
4749;DHT22;2388;53.582;9.962;2024-03-23T13:04:26;7.50;99.90
4749;DHT22;2388;53.582;9.962;2024-03-23T13:06:52;7.50;99.90
4749;DHT22;2388;53.582;9.962;2024-03-23T13:09:17;7.50;99.90
4749;DHT22;2388;53.582;9.962;2024-03-23T13:11:42;7.60;99.90
4749;DHT22;2388;53.582;9.962;2024-03-23T13:14:08;7.60;99.90
4749;DHT22;2388;53.582;9.962;2024-03-23T13:16:33;7.50;99.90
4749;DHT22;2388;53.582;9.962;2024-03-23T13:18:59;7.50;99.90
4749;DHT22;2388;53.582;9.962;2024-03-23T13:21:26;7.60;99.90
4749;DHT22;2388;53.582;9.962;2024-03-23T13:23:52;7.40;99.90
4749;DHT22;2388;53.582;9.962;2024-03-23T13:26:17;7.50;99.90
4749;DHT22;2388;53.582;9.962;2024-03-23T13:28:43;7.50;99.90
4749;DHT22;2388;53.582;9.962;2024-03-23T13:31:08;7.50;99.90
4749;DHT22;2388;53.582;9.962;2024-03-23T13:33:34;7.60;99.90
4749;DHT22;2388;53.582;9.962;2024-03-23T13:35:59;7.60;99.90
4749;DHT22;2388;53.582;9.962;2024-03-23T13:38:25;7.70;99.90
4749;DHT22;2388;53.582;9.962;2024-03-23T13:40:58;8.20;99.90
4749;DHT22;2388;53.582;9.962;2024-03-23T13:43:25;8.40;99.90
4749;DHT22;2388;53.582;9.962;2024-03-23T13:45:54;8.60;99.90
4749;DHT22;2388;53.582;9.962;2024-03-23T13:48:24;8.60;99.90
4749;DHT22;2388;53.582;9.962;2024-03-23T13:51:03;8.80;99.90
4749;DHT22;2388;53.582;9.962;2024-03-23T13:53:29;8.80;99.90
4749;DHT22;2388;53.582;9.962;2024-03-23T13:55:55;8.60;99.90
4749;DHT22;2388;53.582;9.962;2024-03-23T13:58:21;8.60;99.90
4749;DHT22;2388;53.582;9.962;2024-03-23T14:00:47;8.60;99.90
4749;DHT22;2388;53.582;9.962;2024-03-23T14:03:13;8.50;99.90
4749;DHT22;2388;53.582;9.962;2024-03-23T14:05:40;8.50;99.90
4749;DHT22;2388;53.582;9.962;2024-03-23T14:08:10;8.50;99.90
4749;DHT22;2388;53.582;9.962;2024-03-23T14:10:36;8.60;99.90
4749;DHT22;2388;53.582;9.962;2024-03-23T14:13:02;8.70;99.90
4749;DHT22;2388;53.582;9.962;2024-03-23T14:15:31;8.70;99.90
4749;DHT22;2388;53.582;9.962;2024-03-23T14:17:58;8.90;99.90
4749;DHT22;2388;53.582;9.962;2024-03-23T14:20:24;9.30;99.90
4749;DHT22;2388;53.582;9.962;2024-03-23T14:22:50;9.40;99.90
4749;DHT22;2388;53.582;9.962;2024-03-23T14:25:16;9.30;99.90
4749;DHT22;2388;53.582;9.962;2024-03-23T14:27:44;9.10;99.90
4749;DHT22;2388;53.582;9.962;2024-03-23T14:30:10;9.10;99.90
4749;DHT22;2388;53.582;9.962;2024-03-23T14:32:35;9.10;99.90
4749;DHT22;2388;53.582;9.962;2024-03-23T14:35:03;9.30;99.90
4749;DHT22;2388;53.582;9.962;2024-03-23T14:37:29;9.20;99.90
4749;DHT22;2388;53.582;9.962;2024-03-23T14:39:58;9.30;99.90
4749;DHT22;2388;53.582;9.962;2024-03-23T14:42:24;9.50;99.90
4749;DHT22;2388;53.582;9.962;2024-03-23T14:44:50;9.70;99.90
4749;DHT22;2388;53.582;9.962;2024-03-23T14:47:17;9.80;99.90
4749;DHT22;2388;53.582;9.962;2024-03-23T14:49:43;9.60;99.90
4749;DHT22;2388;53.582;9.962;2024-03-23T14:52:15;9.50;99.90
4749;DHT22;2388;53.582;9.962;2024-03-23T14:54:41;9.30;99.90
4749;DHT22;2388;53.582;9.962;2024-03-23T14:57:06;9.20;99.90
4749;DHT22;2388;53.582;9.962;2024-03-23T14:59:34;9.00;99.90
4749;DHT22;2388;53.582;9.962;2024-03-23T15:02:00;9.40;99.90
4749;DHT22;2388;53.582;9.962;2024-03-23T15:04:25;8.30;99.90
4749;DHT22;2388;53.582;9.962;2024-03-23T15:06:51;8.10;99.90
4749;DHT22;2388;53.582;9.962;2024-03-23T15:09:16;8.10;99.90
4749;DHT22;2388;53.582;9.962;2024-03-23T15:11:42;8.10;99.90
4749;DHT22;2388;53.582;9.962;2024-03-23T15:14:07;8.10;99.90
4749;DHT22;2388;53.582;9.962;2024-03-23T15:16:33;7.90;99.90
4749;DHT22;2388;53.582;9.962;2024-03-23T15:18:59;7.80;99.90
4749;DHT22;2388;53.582;9.962;2024-03-23T15:21:25;8.00;99.90
4749;DHT22;2388;53.582;9.962;2024-03-23T15:23:50;8.30;99.90
4749;DHT22;2388;53.582;9.962;2024-03-23T15:26:16;8.40;99.90
4749;DHT22;2388;53.582;9.962;2024-03-23T15:28:41;8.40;99.90
4749;DHT22;2388;53.582;9.962;2024-03-23T15:31:27;8.30;99.90
4749;DHT22;2388;53.582;9.962;2024-03-23T15:33:54;8.30;99.90
4749;DHT22;2388;53.582;9.962;2024-03-23T15:36:19;8.20;99.90
4749;DHT22;2388;53.582;9.962;2024-03-23T15:38:45;8.40;99.90
4749;DHT22;2388;53.582;9.962;2024-03-23T15:41:11;8.00;99.90
4749;DHT22;2388;53.582;9.962;2024-03-23T15:43:36;7.90;99.90
4749;DHT22;2388;53.582;9.962;2024-03-23T15:46:04;7.90;99.90
4749;DHT22;2388;53.582;9.962;2024-03-23T15:48:31;7.80;99.90
4749;DHT22;2388;53.582;9.962;2024-03-23T15:50:59;7.80;99.90
4749;DHT22;2388;53.582;9.962;2024-03-23T15:53:25;7.80;99.90
4749;DHT22;2388;53.582;9.962;2024-03-23T15:55:58;7.90;99.90
4749;DHT22;2388;53.582;9.962;2024-03-23T15:58:24;8.00;99.90
4749;DHT22;2388;53.582;9.962;2024-03-23T16:01:01;8.00;99.90
4749;DHT22;2388;53.582;9.962;2024-03-23T16:03:27;8.00;99.90
4749;DHT22;2388;53.582;9.962;2024-03-23T16:05:57;8.00;99.90
4749;DHT22;2388;53.582;9.962;2024-03-23T16:08:24;8.00;99.90
4749;DHT22;2388;53.582;9.962;2024-03-23T16:10:50;8.00;99.90
4749;DHT22;2388;53.582;9.962;2024-03-23T16:13:16;8.00;99.90
4749;DHT22;2388;53.582;9.962;2024-03-23T16:15:42;7.90;99.90
4749;DHT22;2388;53.582;9.962;2024-03-23T16:18:07;7.80;99.90
4749;DHT22;2388;53.582;9.962;2024-03-23T16:20:33;7.80;99.90
4749;DHT22;2388;53.582;9.962;2024-03-23T16:23:04;7.80;99.90
4749;DHT22;2388;53.582;9.962;2024-03-23T16:25:30;7.70;99.90
4749;DHT22;2388;53.582;9.962;2024-03-23T16:27:58;7.70;99.90
4749;DHT22;2388;53.582;9.962;2024-03-23T16:30:24;7.70;99.90
4749;DHT22;2388;53.582;9.962;2024-03-23T16:32:49;7.70;99.90
4749;DHT22;2388;53.582;9.962;2024-03-23T16:35:15;7.60;99.90
4749;DHT22;2388;53.582;9.962;2024-03-23T16:37:41;7.60;99.90
4749;DHT22;2388;53.582;9.962;2024-03-23T16:40:07;7.70;99.90
4749;DHT22;2388;53.582;9.962;2024-03-23T16:42:35;7.80;99.90
4749;DHT22;2388;53.582;9.962;2024-03-23T16:45:00;7.80;99.90
4749;DHT22;2388;53.582;9.962;2024-03-23T16:47:26;7.80;99.90
4749;DHT22;2388;53.582;9.962;2024-03-23T16:49:53;7.80;99.90
4749;DHT22;2388;53.582;9.962;2024-03-23T16:52:18;7.70;99.90
4749;DHT22;2388;53.582;9.962;2024-03-23T16:54:44;7.60;99.90
4749;DHT22;2388;53.582;9.962;2024-03-23T16:57:09;7.60;99.90
4749;DHT22;2388;53.582;9.962;2024-03-23T16:59:35;7.70;99.90
4749;DHT22;2388;53.582;9.962;2024-03-23T17:02:00;7.70;99.90
4749;DHT22;2388;53.582;9.962;2024-03-23T17:04:26;7.70;99.90
4749;DHT22;2388;53.582;9.962;2024-03-23T17:06:51;7.80;99.90
4749;DHT22;2388;53.582;9.962;2024-03-23T17:09:17;7.70;99.90
4749;DHT22;2388;53.582;9.962;2024-03-23T17:11:42;7.60;99.90
4749;DHT22;2388;53.582;9.962;2024-03-23T17:14:09;7.60;99.90